Time;durP1;ratioP1;P1;durP2;ratioP2;P2;SDS_P1;SDS_P2;PMS_P1;PMS_P2;Temp;Humidity;BMP_temperature;BMP_pressure;BME280_temperature;BME280_humidity;BME280_pressure;Samples;Min_cycle;Max_cycle;Signal;HPM_P1;HPM_P2
2023/11/29 00:00:26;;;;;;;0.70;0.70;;;-4.00;99.90;;;;;;5070086;28;20197;-70
2023/11/29 00:02:52;;;;;;;0.88;0.88;;;-4.00;99.90;;;;;;5070146;28;20197;-70
2023/11/29 00:05:19;;;;;;;1.00;1.00;;;-4.00;99.90;;;;;;5071250;28;20220;-69
2023/11/29 00:07:44;;;;;;;1.67;0.88;;;-4.00;99.90;;;;;;5071206;28;20196;-69
2023/11/29 00:10:10;;;;;;;0.80;0.80;;;-3.90;99.90;;;;;;5071330;28;20193;-70
2023/11/29 00:12:37;;;;;;;0.73;0.73;;;-3.90;99.90;;;;;;5071261;28;20210;-69
2023/11/29 00:15:04;;;;;;;0.80;0.80;;;-3.90;99.90;;;;;;5071119;28;20672;-70
2023/11/29 00:17:29;;;;;;;0.82;0.82;;;-3.90;99.90;;;;;;5071057;28;20243;-70
2023/11/29 00:19:56;;;;;;;0.70;0.70;;;-3.90;99.90;;;;;;5069460;28;20212;-69
2023/11/29 00:22:21;;;;;;;0.80;0.80;;;-3.80;99.90;;;;;;5058508;28;20558;-70
2023/11/29 00:24:47;;;;;;;0.85;0.85;;;-3.80;99.90;;;;;;5051176;28;20294;-69
2023/11/29 00:27:17;;;;;;;0.80;0.80;;;-3.80;99.90;;;;;;5066079;28;20244;-69
2023/11/29 00:29:44;;;;;;;0.80;0.80;;;-3.80;99.90;;;;;;5069403;28;20201;-70
2023/11/29 00:32:10;;;;;;;0.80;0.80;;;-3.80;99.90;;;;;;5071014;28;20228;-70
2023/11/29 00:34:37;;;;;;;0.60;0.60;;;-3.70;99.90;;;;;;5056783;28;20275;-70
2023/11/29 00:37:04;;;;;;;0.70;0.70;;;-3.80;99.90;;;;;;5054649;28;20648;-69
2023/11/29 00:39:30;;;;;;;0.80;0.80;;;-3.70;99.90;;;;;;5070584;28;20216;-70
2023/11/29 00:41:56;;;;;;;0.88;0.88;;;-3.60;99.90;;;;;;5070941;28;20311;-70
2023/11/29 00:44:22;;;;;;;0.75;0.75;;;-3.60;99.90;;;;;;5068991;28;20307;-69
2023/11/29 00:46:47;;;;;;;0.70;0.70;;;-3.60;99.90;;;;;;5070455;28;20208;-70
2023/11/29 00:49:13;;;;;;;0.77;0.77;;;-3.60;99.90;;;;;;5070514;28;20192;-69
2023/11/29 00:51:39;;;;;;;0.80;0.80;;;-3.60;99.90;;;;;;5070218;28;20270;-69
2023/11/29 00:54:04;;;;;;;0.70;0.70;;;-3.60;99.90;;;;;;5068929;28;20207;-70
2023/11/29 00:56:30;;;;;;;0.70;0.70;;;-3.50;99.90;;;;;;5070315;28;20192;-69
2023/11/29 00:58:56;;;;;;;0.80;0.80;;;-3.50;99.90;;;;;;5063570;28;20193;-69
2023/11/29 01:01:21;;;;;;;0.70;0.70;;;-3.50;99.90;;;;;;5067735;28;20250;-69
2023/11/29 01:03:47;;;;;;;0.70;0.70;;;-3.50;99.90;;;;;;5070003;28;20184;-69
2023/11/29 01:06:13;;;;;;;0.80;0.80;;;-3.50;99.90;;;;;;5070833;28;20213;-69
2023/11/29 01:08:38;;;;;;;0.73;0.73;;;-3.50;99.90;;;;;;5070110;28;20223;-69
2023/11/29 01:11:05;;;;;;;0.80;0.80;;;-3.50;99.90;;;;;;5070143;28;20193;-69
2023/11/29 01:13:30;;;;;;;0.70;0.70;;;-3.40;99.90;;;;;;5069958;28;20735;-70
2023/11/29 01:15:56;;;;;;;0.70;0.70;;;-3.40;99.90;;;;;;5070103;28;20308;-72
2023/11/29 01:18:22;;;;;;;0.80;0.80;;;-3.40;99.90;;;;;;5069588;28;20692;-72
2023/11/29 01:20:48;;;;;;;0.80;0.80;;;-3.40;99.90;;;;;;5069828;28;20236;-72
2023/11/29 01:23:13;;;;;;;0.68;0.68;;;-3.40;99.90;;;;;;5068151;28;20623;-72
2023/11/29 01:25:39;;;;;;;0.85;0.85;;;-3.30;99.90;;;;;;5069632;28;20235;-72
2023/11/29 01:28:08;;;;;;;0.70;0.70;;;-3.40;99.90;;;;;;5069659;28;20232;-72
2023/11/29 01:30:33;;;;;;;1.02;0.95;;;-3.30;99.90;;;;;;5057793;28;20205;-72
2023/11/29 01:32:59;;;;;;;0.57;0.57;;;-3.30;99.90;;;;;;5049691;28;20414;-71
2023/11/29 01:35:25;;;;;;;0.75;0.75;;;-3.30;99.90;;;;;;5049464;28;20201;-71
2023/11/29 01:37:50;;;;;;;0.80;0.80;;;-3.30;99.90;;;;;;5060134;28;20249;-72
2023/11/29 01:40:16;;;;;;;0.75;0.75;;;-3.20;99.90;;;;;;5069398;28;20193;-71
2023/11/29 01:42:42;;;;;;;0.73;0.73;;;-3.10;99.90;;;;;;5069109;28;20185;-71
2023/11/29 01:45:08;;;;;;;0.70;0.70;;;-3.10;99.90;;;;;;5069283;28;20197;-72
2023/11/29 01:47:37;;;;;;;0.80;0.80;;;-3.10;99.90;;;;;;5069392;28;20200;-72
2023/11/29 01:50:07;;;;;;;0.80;0.80;;;-3.10;99.90;;;;;;5069370;28;20237;-71
2023/11/29 01:52:35;;;;;;;0.80;0.80;;;-3.10;99.90;;;;;;5069489;28;20311;-71
2023/11/29 01:55:02;;;;;;;0.82;0.82;;;-3.10;99.90;;;;;;5069085;28;20196;-72
2023/11/29 01:57:27;;;;;;;0.77;0.77;;;-3.10;99.90;;;;;;5067492;28;20196;-72
2023/11/29 01:59:53;;;;;;;0.80;0.80;;;-3.00;99.90;;;;;;5069163;28;20660;-72
2023/11/29 02:02:20;;;;;;;0.70;0.70;;;-3.00;99.90;;;;;;5067701;28;20204;-73
2023/11/29 02:04:46;;;;;;;0.70;0.70;;;-3.10;99.90;;;;;;5068808;28;20188;-72
2023/11/29 02:07:13;;;;;;;0.73;0.73;;;-3.10;99.90;;;;;;5069167;28;20282;-72
2023/11/29 02:09:41;;;;;;;0.80;0.80;;;-3.00;99.90;;;;;;5068517;28;20201;-71
2023/11/29 02:12:09;;;;;;;0.60;0.60;;;-3.00;99.90;;;;;;5069070;28;20639;-72
2023/11/29 02:14:42;;;;;;;0.60;0.60;;;-3.00;99.90;;;;;;5067766;28;20296;-72
2023/11/29 02:17:08;;;;;;;0.80;0.80;;;-3.00;99.90;;;;;;5068931;28;20678;-71
2023/11/29 02:19:34;;;;;;;0.80;0.80;;;-3.00;99.90;;;;;;5068458;28;20257;-72
2023/11/29 02:22:00;;;;;;;0.80;0.80;;;-2.90;99.90;;;;;;5068438;28;20555;-72
2023/11/29 02:24:32;;;;;;;0.80;0.80;;;-2.80;99.90;;;;;;5068839;28;20199;-71
2023/11/29 02:26:59;;;;;;;0.80;0.80;;;-2.80;99.90;;;;;;5068164;28;20290;-73
2023/11/29 02:29:24;;;;;;;2.63;1.67;;;-2.70;99.90;;;;;;5068589;28;20185;-74
2023/11/29 02:31:50;;;;;;;0.70;0.70;;;-2.70;99.90;;;;;;5068892;28;20275;-73
2023/11/29 02:34:16;;;;;;;0.80;0.80;;;-2.70;99.90;;;;;;5069158;28;20193;-73
2023/11/29 02:36:41;;;;;;;0.80;0.80;;;-2.70;99.90;;;;;;5068466;28;20200;-73
2023/11/29 02:39:09;;;;;;;0.63;0.63;;;-2.60;99.90;;;;;;5068738;28;20203;-74
2023/11/29 02:41:37;;;;;;;0.70;0.70;;;-2.60;99.90;;;;;;5068780;28;20196;-72
2023/11/29 02:44:04;;;;;;;0.70;0.70;;;-2.60;99.90;;;;;;5068879;28;20219;-74
2023/11/29 02:46:29;;;;;;;0.70;0.70;;;-2.70;99.90;;;;;;5068516;28;20679;-73
2023/11/29 02:48:57;;;;;;;0.80;0.80;;;-2.60;99.90;;;;;;5068462;28;20203;-72
2023/11/29 02:51:23;;;;;;;0.60;0.60;;;-2.60;99.90;;;;;;5068211;28;20301;-73
2023/11/29 02:53:49;;;;;;;0.73;0.73;;;-2.60;99.90;;;;;;5070545;28;20248;-73
2023/11/29 02:56:14;;;;;;;0.73;0.73;;;-2.60;99.90;;;;;;5072654;28;20242;-72
2023/11/29 02:58:40;;;;;;;0.70;0.70;;;-2.60;99.90;;;;;;5071172;28;20489;-72
2023/11/29 03:01:06;;;;;;;0.60;0.60;;;-2.60;99.90;;;;;;5072658;28;20561;-72
2023/11/29 03:03:31;;;;;;;0.60;0.60;;;-2.50;99.90;;;;;;5071251;28;20648;-72
2023/11/29 03:05:57;;;;;;;0.60;0.60;;;-2.50;99.90;;;;;;5072408;28;20208;-73
2023/11/29 03:08:23;;;;;;;0.90;0.90;;;-2.50;99.90;;;;;;5072351;28;20246;-72
2023/11/29 03:10:49;;;;;;;0.55;0.55;;;-2.50;99.90;;;;;;5072334;28;20195;-73
2023/11/29 03:13:14;;;;;;;0.80;0.80;;;-2.50;99.90;;;;;;5072540;28;20412;-73
2023/11/29 03:15:40;;;;;;;0.63;0.63;;;-2.50;99.90;;;;;;5072209;28;20217;-75
2023/11/29 03:18:06;;;;;;;0.80;0.80;;;-2.50;99.90;;;;;;5072268;28;20200;-72
2023/11/29 03:20:31;;;;;;;0.70;0.70;;;-2.50;99.90;;;;;;5072067;28;20226;-73
2023/11/29 03:22:57;;;;;;;0.70;0.70;;;-2.50;99.90;;;;;;5072239;28;20208;-71
2023/11/29 03:25:22;;;;;;;0.70;0.70;;;-2.50;99.90;;;;;;5072102;28;20236;-72
2023/11/29 03:27:48;;;;;;;0.80;0.80;;;-2.40;99.90;;;;;;5072276;28;20247;-72
2023/11/29 03:30:14;;;;;;;0.70;0.70;;;-2.40;99.90;;;;;;5072382;28;20600;-73
2023/11/29 03:32:39;;;;;;;0.80;0.80;;;-2.40;99.90;;;;;;5072433;28;20233;-74
2023/11/29 03:35:05;;;;;;;0.90;0.90;;;-2.40;99.90;;;;;;5071131;28;20259;-72
2023/11/29 03:37:32;;;;;;;0.73;0.73;;;-2.40;99.90;;;;;;5071565;28;20200;-72
2023/11/29 03:39:57;;;;;;;0.70;0.70;;;-2.30;99.90;;;;;;5070605;28;20232;-72
2023/11/29 03:42:23;;;;;;;0.85;0.85;;;-2.30;99.90;;;;;;5056680;28;20233;-71
2023/11/29 03:44:49;;;;;;;0.70;0.70;;;-2.30;99.90;;;;;;5052002;28;20653;-71
2023/11/29 03:47:14;;;;;;;0.80;0.80;;;-2.30;99.90;;;;;;5051780;28;20387;-72
2023/11/29 03:49:41;;;;;;;0.60;0.60;;;-2.30;99.90;;;;;;5065603;28;20564;-71
2023/11/29 03:52:06;;;;;;;0.70;0.70;;;-2.30;99.90;;;;;;5071530;28;20633;-71
2023/11/29 03:54:32;;;;;;;0.70;0.70;;;-2.30;99.90;;;;;;5070226;28;20255;-71
2023/11/29 03:56:57;;;;;;;0.70;0.70;;;-2.20;99.90;;;;;;5070177;28;20203;-71
2023/11/29 03:59:23;;;;;;;0.60;0.60;;;-2.20;99.90;;;;;;5071401;28;20192;-72
2023/11/29 04:01:49;;;;;;;0.60;0.60;;;-2.20;99.90;;;;;;5062248;28;20200;-71
2023/11/29 04:04:14;;;;;;;0.85;0.85;;;-2.20;99.90;;;;;;5071086;28;20208;-72
2023/11/29 04:06:40;;;;;;;0.60;0.60;;;-2.20;99.90;;;;;;5069592;28;20228;-72
2023/11/29 04:09:06;;;;;;;0.60;0.60;;;-2.20;99.90;;;;;;5071293;28;20200;-71
2023/11/29 04:11:31;;;;;;;0.68;0.68;;;-2.20;99.90;;;;;;5070967;28;20266;-72
2023/11/29 04:13:57;;;;;;;0.77;0.77;;;-2.10;99.90;;;;;;5071132;28;20652;-72
2023/11/29 04:16:25;;;;;;;0.70;0.70;;;-2.10;99.90;;;;;;5069578;28;20215;-72
2023/11/29 04:18:52;;;;;;;0.70;0.70;;;-2.10;99.90;;;;;;5069570;28;20279;-72
2023/11/29 04:21:29;;;;;;;0.60;0.60;;;-2.10;99.90;;;;;;5071099;28;20710;-72
2023/11/29 04:23:56;;;;;;;0.60;0.60;;;-2.10;99.90;;;;;;5070978;28;20728;-72
2023/11/29 04:26:32;;;;;;;0.77;0.77;;;-2.10;99.90;;;;;;5070764;28;20261;-71
2023/11/29 04:28:59;;;;;;;0.60;0.60;;;-2.10;99.90;;;;;;5070987;28;20216;-71
2023/11/29 04:31:25;;;;;;;1.23;1.13;;;-2.10;99.90;;;;;;5069458;28;20334;-71
2023/11/29 04:33:51;;;;;;;0.63;0.63;;;-2.10;99.90;;;;;;5070944;28;20280;-71
2023/11/29 04:36:16;;;;;;;0.70;0.70;;;-2.10;99.90;;;;;;5070891;28;20304;-71
2023/11/29 04:38:42;;;;;;;0.60;0.60;;;-2.10;99.90;;;;;;5070500;28;20249;-71
2023/11/29 04:41:08;;;;;;;0.70;0.70;;;-2.10;99.90;;;;;;5071150;28;20235;-71
2023/11/29 04:43:34;;;;;;;0.60;0.60;;;-2.10;99.90;;;;;;5070511;28;20200;-71
2023/11/29 04:46:00;;;;;;;0.60;0.60;;;-2.00;99.90;;;;;;5070854;28;20213;-69
2023/11/29 04:48:26;;;;;;;0.70;0.70;;;-2.00;99.90;;;;;;5070756;28;20200;-69
2023/11/29 04:50:51;;;;;;;0.60;0.60;;;-2.00;99.90;;;;;;5070663;28;20193;-71
2023/11/29 04:53:17;;;;;;;0.70;0.70;;;-2.00;99.90;;;;;;5069489;28;20288;-69
2023/11/29 04:55:43;;;;;;;0.80;0.80;;;-2.00;99.90;;;;;;5071007;28;20250;-68
2023/11/29 04:58:08;;;;;;;0.68;0.68;;;-2.00;99.90;;;;;;5070637;28;20569;-68
2023/11/29 05:00:34;;;;;;;0.70;0.70;;;-2.00;99.90;;;;;;5070237;28;20270;-70
2023/11/29 05:03:00;;;;;;;0.70;0.70;;;-1.90;99.90;;;;;;5070426;28;20205;-68
2023/11/29 05:05:25;;;;;;;0.70;0.70;;;-1.90;99.90;;;;;;5070191;28;20267;-69
2023/11/29 05:07:53;;;;;;;0.60;0.60;;;-1.90;99.90;;;;;;5068990;28;20600;-68
2023/11/29 05:10:20;;;;;;;0.70;0.70;;;-1.90;99.90;;;;;;5068663;28;20197;-68
2023/11/29 05:12:46;;;;;;;0.70;0.70;;;-1.90;99.90;;;;;;5070620;28;20603;-68
2023/11/29 05:15:12;;;;;;;0.80;0.80;;;-1.90;99.90;;;;;;5061438;28;20545;-68
2023/11/29 05:17:37;;;;;;;0.70;0.70;;;-1.90;99.90;;;;;;5049546;28;20275;-68
2023/11/29 05:20:03;;;;;;;0.60;0.60;;;-1.90;99.90;;;;;;5049913;28;20280;-69
2023/11/29 05:22:29;;;;;;;0.70;0.70;;;-1.90;99.90;;;;;;5048562;28;20247;-71
2023/11/29 05:24:55;;;;;;;0.80;0.80;;;-2.00;99.90;;;;;;5049875;28;20205;-68
2023/11/29 05:27:20;;;;;;;1.33;1.23;;;-1.90;99.90;;;;;;5049815;28;20204;-70
2023/11/29 05:29:46;;;;;;;1.00;1.00;;;-1.90;99.90;;;;;;5050121;28;20186;-68
2023/11/29 05:32:12;;;;;;;0.98;0.98;;;-1.90;99.90;;;;;;5048654;28;20190;-68
2023/11/29 05:34:38;;;;;;;0.70;0.70;;;-1.90;99.90;;;;;;5062075;28;20212;-68
2023/11/29 05:37:03;;;;;;;0.75;0.75;;;-1.80;99.90;;;;;;5068239;28;20665;-69
2023/11/29 05:39:29;;;;;;;0.55;0.55;;;-1.80;99.90;;;;;;5069345;28;20201;-69
2023/11/29 05:41:55;;;;;;;0.80;0.80;;;-1.80;99.90;;;;;;5062074;28;20209;-69
2023/11/29 05:44:21;;;;;;;0.60;0.60;;;-1.80;99.90;;;;;;5067934;28;20205;-67
2023/11/29 05:46:46;;;;;;;0.70;0.70;;;-1.70;99.90;;;;;;5068107;28;20699;-69
2023/11/29 05:49:12;;;;;;;0.70;0.70;;;-1.70;99.90;;;;;;5069538;28;20193;-69
2023/11/29 05:51:37;;;;;;;0.70;0.70;;;-1.70;99.90;;;;;;5067576;28;20225;-69
2023/11/29 05:54:03;;;;;;;0.80;0.80;;;-1.70;99.90;;;;;;5069490;28;20204;-70
2023/11/29 05:56:29;;;;;;;0.60;0.60;;;-1.70;99.90;;;;;;5069570;28;20196;-74
2023/11/29 05:58:55;;;;;;;1.33;1.23;;;-1.70;99.90;;;;;;5069225;28;20235;-76
2023/11/29 06:01:21;;;;;;;0.70;0.70;;;-1.70;99.90;;;;;;5069007;28;20728;-75
2023/11/29 06:03:47;;;;;;;0.70;0.70;;;-1.60;99.90;;;;;;5069171;28;20211;-75
2023/11/29 06:06:13;;;;;;;0.75;0.75;;;-1.60;99.90;;;;;;5069127;28;20699;-73
2023/11/29 06:08:40;;;;;;;0.80;0.80;;;-1.60;99.90;;;;;;5069045;28;20697;-74
2023/11/29 06:11:07;;;;;;;0.50;0.50;;;-1.60;99.90;;;;;;5061660;28;20208;-74
2023/11/29 06:13:36;;;;;;;0.70;0.70;;;-1.60;99.90;;;;;;5049345;28;20193;-73
2023/11/29 06:16:02;;;;;;;0.70;0.70;;;-1.60;99.90;;;;;;5048984;28;20679;-74
2023/11/29 06:18:28;;;;;;;0.70;0.70;;;-1.60;99.90;;;;;;5048748;28;20226;-74
2023/11/29 06:20:54;;;;;;;0.77;0.77;;;-1.60;99.90;;;;;;5048835;28;20246;-74
2023/11/29 06:23:20;;;;;;;0.80;0.80;;;-1.50;99.90;;;;;;5048607;28;20677;-73
2023/11/29 06:25:45;;;;;;;1.67;1.58;;;-1.60;99.90;;;;;;5048679;28;20209;-73
2023/11/29 06:28:11;;;;;;;0.75;0.75;;;-1.50;99.90;;;;;;5048750;28;20746;-74
2023/11/29 06:30:37;;;;;;;0.70;0.70;;;-1.50;99.90;;;;;;5060327;28;20278;-75
2023/11/29 06:33:02;;;;;;;2.25;1.95;;;-1.50;99.90;;;;;;5068891;28;20193;-74
2023/11/29 06:35:28;;;;;;;1.10;1.10;;;-1.50;99.90;;;;;;5068786;28;20253;-74
2023/11/29 06:37:54;;;;;;;0.60;0.60;;;-1.50;99.90;;;;;;5062331;28;20326;-76
2023/11/29 06:40:20;;;;;;;0.90;0.90;;;-1.50;99.90;;;;;;5068547;28;20258;-74
2023/11/29 06:42:49;;;;;;;1.00;1.00;;;-1.50;99.90;;;;;;5068727;28;20554;-73
2023/11/29 06:45:19;;;;;;;0.60;0.60;;;-1.50;99.90;;;;;;5068659;28;20196;-73
2023/11/29 06:47:45;;;;;;;0.70;0.70;;;-1.50;99.90;;;;;;5068757;28;20226;-73
2023/11/29 06:50:11;;;;;;;0.73;0.73;;;-1.40;99.90;;;;;;5068693;28;20608;-74
2023/11/29 06:52:38;;;;;;;0.68;0.68;;;-1.40;99.90;;;;;;5068345;28;20294;-76
2023/11/29 06:55:04;;;;;;;0.63;0.63;;;-1.40;99.90;;;;;;5068626;28;20224;-75
2023/11/29 06:57:30;;;;;;;0.73;0.73;;;-1.40;99.90;;;;;;5068390;28;20224;-76
2023/11/29 06:59:56;;;;;;;0.70;0.70;;;-1.40;99.90;;;;;;5068616;28;20656;-75
2023/11/29 07:02:22;;;;;;;0.85;0.85;;;-1.40;99.90;;;;;;5068296;28;20242;-76
2023/11/29 07:04:48;;;;;;;0.70;0.70;;;-1.40;99.90;;;;;;5068646;28;20181;-75
2023/11/29 07:07:15;;;;;;;0.80;0.80;;;-1.40;99.90;;;;;;5064167;28;20232;-71
2023/11/29 07:09:40;;;;;;;0.70;0.70;;;-1.40;99.90;;;;;;5048223;28;20186;-72
2023/11/29 07:12:08;;;;;;;0.90;0.90;;;-1.40;99.90;;;;;;5048376;28;20208;-72
2023/11/29 07:14:34;;;;;;;0.70;0.70;;;-1.50;99.90;;;;;;5047026;28;20194;-71
2023/11/29 07:16:59;;;;;;;0.73;0.73;;;-1.40;99.90;;;;;;5048524;28;20572;-71
2023/11/29 07:19:25;;;;;;;0.73;0.73;;;-1.40;99.90;;;;;;5048323;28;20205;-72
2023/11/29 07:21:51;;;;;;;0.80;0.80;;;-1.40;99.90;;;;;;5048175;28;20210;-72
2023/11/29 07:24:16;;;;;;;0.70;0.70;;;-1.50;99.90;;;;;;5048444;28;20193;-72
2023/11/29 07:26:42;;;;;;;0.70;0.70;;;-1.50;99.90;;;;;;5048126;28;20217;-72
2023/11/29 07:29:08;;;;;;;1.33;1.23;;;-1.50;99.90;;;;;;5048232;28;20193;-72
2023/11/29 07:31:34;;;;;;;0.52;0.52;;;-1.50;99.90;;;;;;5048117;28;20197;-72
2023/11/29 07:34:00;;;;;;;0.77;0.77;;;-1.50;99.90;;;;;;5056418;28;20667;-72
2023/11/29 07:36:26;;;;;;;0.70;0.70;;;-1.50;99.90;;;;;;5067987;28;20231;-71
2023/11/29 07:38:52;;;;;;;0.70;0.70;;;-1.50;99.90;;;;;;5068125;28;20254;-71
2023/11/29 07:41:20;;;;;;;0.70;0.70;;;-1.50;99.90;;;;;;5071694;28;20197;-72
2023/11/29 07:43:46;;;;;;;1.38;1.27;;;-1.50;99.90;;;;;;5071889;28;20205;-71
2023/11/29 07:46:12;;;;;;;0.88;0.88;;;-1.50;99.90;;;;;;5071961;28;20209;-71
2023/11/29 07:48:38;;;;;;;0.70;0.70;;;-1.40;99.90;;;;;;5071794;28;20189;-71
2023/11/29 07:51:04;;;;;;;0.73;0.73;;;-1.40;99.90;;;;;;5071533;28;20518;-72
2023/11/29 07:53:29;;;;;;;0.80;0.80;;;-1.40;99.90;;;;;;5070170;28;20200;-72
2023/11/29 07:55:55;;;;;;;1.30;1.20;;;-1.30;99.90;;;;;;5069939;28;20212;-71
2023/11/29 07:58:21;;;;;;;5.65;2.30;;;-1.30;99.90;;;;;;5071360;28;20196;-71
2023/11/29 08:00:48;;;;;;;4.03;2.58;;;-1.30;99.90;;;;;;5071703;28;20225;-72
2023/11/29 08:03:17;;;;;;;0.65;0.65;;;-1.30;99.90;;;;;;5071340;28;20200;-72
2023/11/29 08:05:42;;;;;;;0.70;0.70;;;-1.30;99.90;;;;;;5071317;28;20216;-72
2023/11/29 08:08:08;;;;;;;0.60;0.60;;;-1.20;99.90;;;;;;5071290;28;20192;-72
2023/11/29 08:10:34;;;;;;;0.70;0.70;;;-1.20;99.90;;;;;;5071255;28;20276;-72
2023/11/29 08:13:00;;;;;;;0.68;0.68;;;-1.20;99.90;;;;;;5071817;28;20275;-73
2023/11/29 08:15:29;;;;;;;0.68;0.68;;;-1.10;99.90;;;;;;5071237;28;20204;-72
2023/11/29 08:17:55;;;;;;;0.80;0.80;;;-1.10;99.90;;;;;;5071172;28;20196;-71
2023/11/29 08:20:22;;;;;;;0.70;0.70;;;-1.10;99.90;;;;;;5070762;28;20204;-72
2023/11/29 08:22:47;;;;;;;0.60;0.60;;;-1.10;99.90;;;;;;5069544;28;20243;-72
2023/11/29 08:25:13;;;;;;;0.70;0.70;;;-1.10;99.90;;;;;;5070943;28;20254;-72
2023/11/29 08:27:39;;;;;;;0.70;0.70;;;-1.10;99.90;;;;;;5070779;28;20200;-72
2023/11/29 08:30:06;;;;;;;0.70;0.70;;;-1.10;99.90;;;;;;5070870;28;20197;-71
2023/11/29 08:32:32;;;;;;;0.70;0.70;;;-1.10;99.90;;;;;;5070672;28;20641;-73
2023/11/29 08:34:58;;;;;;;0.80;0.80;;;-1.00;99.90;;;;;;5070729;28;20220;-72
2023/11/29 08:37:24;;;;;;;0.70;0.70;;;-1.00;99.90;;;;;;5070383;28;20271;-72
2023/11/29 08:39:50;;;;;;;0.60;0.60;;;-1.00;99.90;;;;;;5069207;28;20208;-72
2023/11/29 08:42:15;;;;;;;0.60;0.60;;;-0.90;99.90;;;;;;5070644;28;20201;-72
2023/11/29 08:44:42;;;;;;;0.68;0.68;;;-0.90;99.90;;;;;;5070648;28;20208;-72
2023/11/29 08:47:07;;;;;;;0.70;0.70;;;-0.90;99.90;;;;;;5070544;28;20200;-72
2023/11/29 08:49:33;;;;;;;0.75;0.75;;;-0.90;99.90;;;;;;5070186;28;20204;-72
2023/11/29 08:51:59;;;;;;;2.42;1.33;;;-0.90;99.90;;;;;;5069099;28;20255;-71
2023/11/29 08:54:25;;;;;;;1.38;1.05;;;-0.80;99.90;;;;;;5068783;28;20680;-72
2023/11/29 08:56:50;;;;;;;1.05;1.00;;;-0.80;99.90;;;;;;5070315;28;20201;-72
2023/11/29 08:59:17;;;;;;;0.60;0.60;;;-0.80;99.90;;;;;;5069220;28;20207;-72
2023/11/29 09:01:43;;;;;;;0.60;0.60;;;-0.70;99.90;;;;;;5048729;28;20279;-72
2023/11/29 09:04:08;;;;;;;0.80;0.80;;;-0.70;99.90;;;;;;5050617;28;20194;-72
2023/11/29 09:06:34;;;;;;;0.70;0.70;;;-0.70;99.90;;;;;;5049967;28;20221;-71
2023/11/29 09:09:00;;;;;;;0.77;0.77;;;-0.60;99.90;;;;;;5048713;28;20252;-71
2023/11/29 09:11:25;;;;;;;0.70;0.70;;;-0.60;99.90;;;;;;5048413;28;20206;-72
2023/11/29 09:13:51;;;;;;;0.70;0.70;;;-0.60;99.90;;;;;;5050201;28;20189;-72
2023/11/29 09:16:18;;;;;;;0.55;0.55;;;-0.60;99.90;;;;;;5050154;28;20627;-72
2023/11/29 09:18:44;;;;;;;0.60;0.60;;;-0.50;99.90;;;;;;5049798;28;20592;-72
2023/11/29 09:21:10;;;;;;;0.70;0.70;;;-0.50;99.90;;;;;;5049841;28;20200;-73
2023/11/29 09:23:37;;;;;;;0.60;0.60;;;-0.50;99.90;;;;;;5048309;28;20217;-71
2023/11/29 09:26:02;;;;;;;0.68;0.68;;;-0.50;99.90;;;;;;5054015;28;20291;-72
2023/11/29 09:28:28;;;;;;;0.70;0.70;;;-0.50;99.90;;;;;;5069422;28;20327;-72
2023/11/29 09:30:54;;;;;;;0.68;0.68;;;-0.50;99.90;;;;;;5069745;28;20221;-72
2023/11/29 09:33:23;;;;;;;0.80;0.80;;;-0.50;99.90;;;;;;5069757;28;20196;-72
2023/11/29 09:35:48;;;;;;;0.80;0.80;;;-0.50;99.90;;;;;;5069521;28;20199;-72
2023/11/29 09:38:16;;;;;;;0.90;0.90;;;-0.60;99.90;;;;;;5069514;28;20209;-72
2023/11/29 09:40:42;;;;;;;0.80;0.80;;;-0.60;99.90;;;;;;5069504;28;20191;-73
2023/11/29 09:43:08;;;;;;;0.60;0.60;;;-0.60;99.90;;;;;;5069507;28;20261;-72
2023/11/29 09:45:34;;;;;;;0.80;0.80;;;-0.60;99.90;;;;;;5069170;28;20196;-73
2023/11/29 09:48:00;;;;;;;1.55;1.17;;;-0.60;99.90;;;;;;5069286;28;20212;-73
2023/11/29 09:50:27;;;;;;;0.70;0.70;;;-0.60;99.90;;;;;;5069623;28;20896;-73
2023/11/29 09:52:54;;;;;;;0.70;0.70;;;-0.60;99.90;;;;;;5067683;28;20260;-72
2023/11/29 09:55:20;;;;;;;0.70;0.70;;;-0.60;99.90;;;;;;5069235;28;20660;-72
2023/11/29 09:57:46;;;;;;;0.65;0.65;;;-0.60;99.90;;;;;;5069000;28;20714;-72
2023/11/29 10:00:15;;;;;;;0.60;0.60;;;-0.70;99.90;;;;;;5069044;28;20217;-73
2023/11/29 10:02:41;;;;;;;0.60;0.60;;;-0.70;99.90;;;;;;5068798;28;20599;-72
2023/11/29 10:05:08;;;;;;;0.88;0.85;;;-0.90;99.90;;;;;;5069089;28;20193;-72
2023/11/29 10:07:34;;;;;;;0.65;0.65;;;-0.90;99.90;;;;;;5069104;28;20193;-72
2023/11/29 10:10:06;;;;;;;0.60;0.60;;;-0.70;99.90;;;;;;5069010;28;20203;-72
2023/11/29 10:12:35;;;;;;;0.70;0.70;;;-0.50;99.90;;;;;;5068938;28;20679;-72
2023/11/29 10:15:01;;;;;;;0.60;0.60;;;-0.30;99.90;;;;;;5069134;28;20691;-72
2023/11/29 10:17:27;;;;;;;0.70;0.70;;;-0.20;99.90;;;;;;5068423;28;20197;-72
2023/11/29 10:19:56;;;;;;;0.70;0.70;;;-0.20;99.90;;;;;;5068739;28;20731;-75
2023/11/29 10:22:21;;;;;;;0.95;0.90;;;-0.20;99.90;;;;;;5068472;28;20204;-72
2023/11/29 10:24:47;;;;;;;0.63;0.63;;;-0.20;99.90;;;;;;5068737;28;20208;-73
2023/11/29 10:27:16;;;;;;;0.85;0.85;;;-0.20;99.90;;;;;;5068884;28;20628;-72
2023/11/29 10:29:42;;;;;;;0.60;0.60;;;-0.10;99.90;;;;;;5068793;28;20204;-72
2023/11/29 10:32:08;;;;;;;0.55;0.55;;;0.00;99.90;;;;;;5068826;28;20192;-72
2023/11/29 10:34:35;;;;;;;0.70;0.70;;;0.10;99.90;;;;;;5068870;28;20668;-72
2023/11/29 10:37:02;;;;;;;0.70;0.70;;;0.20;99.90;;;;;;5068904;28;20193;-68
2023/11/29 10:39:37;;;;;;;0.60;0.60;;;0.20;99.90;;;;;;5068937;28;20238;-68
2023/11/29 10:42:10;;;;;;;0.70;0.70;;;0.20;99.90;;;;;;5069107;28;20671;-70
2023/11/29 10:44:40;;;;;;;0.70;0.70;;;0.20;99.90;;;;;;5067527;28;20240;-69
2023/11/29 10:47:20;;;;;;;0.60;0.60;;;0.00;99.90;;;;;;5067342;28;20221;-69
2023/11/29 10:49:55;;;;;;;0.70;0.70;;;-0.20;99.90;;;;;;5068883;28;20766;-69
2023/11/29 10:52:21;;;;;;;0.68;0.68;;;-0.20;99.90;;;;;;5062884;28;20649;-69
2023/11/29 10:54:48;;;;;;;0.60;0.60;;;-0.30;99.90;;;;;;5048794;28;20193;-70
2023/11/29 10:57:24;;;;;;;0.60;0.60;;;-0.40;99.90;;;;;;5048852;28;20197;-69
2023/11/29 11:00:00;;;;;;;0.60;0.60;;;-0.50;99.90;;;;;;5047650;28;20212;-69
2023/11/29 11:02:30;;;;;;;0.60;0.60;;;-0.70;99.90;;;;;;5047238;28;20205;-69
2023/11/29 11:05:08;;;;;;;0.50;0.50;;;-0.80;99.90;;;;;;5048674;28;20602;-69
2023/11/29 11:07:56;;;;;;;0.70;0.70;;;-0.80;99.90;;;;;;5048623;28;20201;-70
2023/11/29 11:10:26;;;;;;;0.50;0.50;;;-1.00;99.90;;;;;;5047064;28;20284;-69
2023/11/29 11:12:55;;;;;;;0.70;0.70;;;-1.10;99.90;;;;;;5047557;28;20207;-69
2023/11/29 11:15:25;;;;;;;0.70;0.70;;;-1.30;99.90;;;;;;5049666;28;20220;-68
2023/11/29 11:18:10;;;;;;;0.73;0.73;;;-1.50;99.90;;;;;;5057069;28;20276;-69
2023/11/29 11:20:40;;;;;;;0.70;0.70;;;-1.60;99.90;;;;;;5052156;28;20656;-69
2023/11/29 11:23:06;;;;;;;0.60;0.60;;;-1.60;99.90;;;;;;5052232;28;20200;-69
2023/11/29 11:25:32;;;;;;;0.60;0.60;;;-1.80;99.90;;;;;;5050285;28;20202;-69
2023/11/29 11:27:57;;;;;;;0.60;0.60;;;-2.00;99.90;;;;;;5051813;28;20276;-69
2023/11/29 11:30:25;;;;;;;0.57;0.57;;;-2.10;99.90;;;;;;5052082;28;20276;-70
2023/11/29 11:32:57;;;;;;;0.70;0.70;;;-2.10;99.90;;;;;;5051993;28;20238;-68
2023/11/29 11:35:24;;;;;;;0.70;0.70;;;-2.20;99.90;;;;;;5051830;28;20217;-69
2023/11/29 11:37:58;;;;;;;0.80;0.80;;;-2.20;99.90;;;;;;5062337;28;20211;-70
2023/11/29 11:40:30;;;;;;;0.68;0.68;;;-2.30;99.90;;;;;;5071696;28;20594;-69
2023/11/29 11:42:57;;;;;;;0.80;0.80;;;-2.30;99.90;;;;;;5071727;28;20729;-71
2023/11/29 11:45:23;;;;;;;0.80;0.80;;;-2.40;99.90;;;;;;5071273;28;20268;-69
2023/11/29 11:47:50;;;;;;;0.75;0.75;;;-2.50;99.90;;;;;;5071906;28;20664;-75
2023/11/29 11:50:17;;;;;;;0.70;0.70;;;-2.50;99.90;;;;;;5050839;28;20205;-77
2023/11/29 11:52:43;;;;;;;0.80;0.80;;;-2.60;99.90;;;;;;5049960;28;20244;-75
2023/11/29 11:55:18;;;;;;;0.65;0.65;;;-2.60;99.90;;;;;;5051609;28;20198;-76
2023/11/29 11:57:44;;;;;;;0.80;0.80;;;-2.60;99.90;;;;;;5051542;28;20212;-77
2023/11/29 12:00:12;;;;;;;0.70;0.70;;;-2.70;99.90;;;;;;5050465;28;20194;-77
2023/11/29 12:02:39;;;;;;;0.60;0.60;;;-2.80;99.90;;;;;;5050038;28;20284;-77
2023/11/29 12:05:06;;;;;;;0.70;0.70;;;-3.00;99.90;;;;;;5050171;28;20193;-76
2023/11/29 12:07:36;;;;;;;0.80;0.80;;;-3.10;99.90;;;;;;5057331;28;20261;-73
2023/11/29 12:10:03;;;;;;;0.60;0.60;;;-3.10;99.90;;;;;;5070087;28;20311;-75
2023/11/29 12:12:29;;;;;;;0.80;0.80;;;-3.20;99.90;;;;;;5071025;28;20195;-77
2023/11/29 12:14:57;;;;;;;0.73;0.73;;;-3.20;99.90;;;;;;5071107;28;20272;-76
2023/11/29 12:17:31;;;;;;;0.77;0.77;;;-3.30;99.90;;;;;;5070987;28;20233;-77
2023/11/29 12:19:57;;;;;;;0.80;0.80;;;-3.30;99.90;;;;;;5070919;28;20710;-76
2023/11/29 12:22:25;;;;;;;0.80;0.80;;;-3.20;99.90;;;;;;5070925;28;20571;-77
2023/11/29 12:24:51;;;;;;;0.80;0.80;;;-3.10;99.90;;;;;;5069773;28;20208;-73
2023/11/29 12:27:18;;;;;;;0.80;0.80;;;-3.10;99.90;;;;;;5069282;28;20220;-74
2023/11/29 12:29:48;;;;;;;0.80;0.80;;;-3.10;99.90;;;;;;5069364;28;20208;-74
2023/11/29 12:32:15;;;;;;;1.42;1.33;;;-3.20;99.90;;;;;;5069309;28;20193;-76
2023/11/29 12:34:42;;;;;;;0.75;0.75;;;-3.30;99.90;;;;;;5070690;28;20218;-76
2023/11/29 12:37:16;;;;;;;0.60;0.60;;;-3.30;99.90;;;;;;5070147;28;20219;-75
2023/11/29 12:39:43;;;;;;;0.80;0.80;;;-3.30;99.90;;;;;;5070621;28;20189;-76
2023/11/29 12:42:10;;;;;;;0.80;0.80;;;-3.40;99.90;;;;;;5071431;28;20280;-75
2023/11/29 12:44:46;;;;;;;0.70;0.70;;;-3.40;99.90;;;;;;5066991;28;20194;-76